createdAt,value
2018-09-19T00:00:23.034Z,23.17
2018-09-19T00:00:54.626Z,23.18
2018-09-19T00:01:26.221Z,23.19
2018-09-19T00:01:57.865Z,23.20
2018-09-19T00:02:29.452Z,23.20
2018-09-19T00:03:01.055Z,23.19
2018-09-19T00:03:32.634Z,23.20
2018-09-19T00:04:04.228Z,23.18
2018-09-19T00:04:35.834Z,23.17
2018-09-19T00:05:07.424Z,23.17
2018-09-19T00:05:39.027Z,23.20
2018-09-19T00:06:10.623Z,23.20
2018-09-19T00:06:42.212Z,23.20
2018-09-19T00:07:13.836Z,23.20
2018-09-19T00:07:45.427Z,23.18
2018-09-19T00:08:17.011Z,23.20
2018-09-19T00:08:48.610Z,23.25
2018-09-19T00:09:20.201Z,23.32
2018-09-19T00:09:51.792Z,23.27
2018-09-19T00:10:23.396Z,23.26
2018-09-19T00:10:54.990Z,23.20
2018-09-19T00:11:26.592Z,23.14
2018-09-19T00:11:58.237Z,23.02
2018-09-19T00:12:29.860Z,23.01
2018-09-19T00:13:01.446Z,23.02
2018-09-19T00:13:33.052Z,23.04
2018-09-19T00:14:04.644Z,23.05
2018-09-19T00:14:36.237Z,22.87
2018-09-19T00:15:07.824Z,23.06
2018-09-19T00:15:39.402Z,23.07
2018-09-19T00:16:11.034Z,23.05
2018-09-19T00:16:42.614Z,23.05
2018-09-19T00:17:14.251Z,23.06
2018-09-19T00:17:45.854Z,22.99
2018-09-19T00:18:17.438Z,23.12
2018-09-19T00:18:49.043Z,23.14
2018-09-19T00:19:20.648Z,23.15
2018-09-19T00:19:52.290Z,23.15
2018-09-19T00:20:23.879Z,23.16
2018-09-19T00:20:55.454Z,23.16
2018-09-19T00:21:27.053Z,23.10
2018-09-19T00:21:58.663Z,23.09
2018-09-19T00:22:30.293Z,23.08
2018-09-19T00:23:01.901Z,23.07
2018-09-19T00:23:33.495Z,23.06
2018-09-19T00:24:05.072Z,23.03
2018-09-19T00:24:36.662Z,23.01
2018-09-19T00:25:08.267Z,22.99
2018-09-19T00:25:39.874Z,22.98
2018-09-19T00:26:11.474Z,22.97
2018-09-19T00:26:43.078Z,22.96
2018-09-19T00:27:14.738Z,22.96
2018-09-19T00:27:46.342Z,22.99
2018-09-19T00:28:17.938Z,23.00
2018-09-19T00:28:49.566Z,23.02
2018-09-19T00:29:21.153Z,22.99
2018-09-19T00:29:52.746Z,22.97
2018-09-19T00:30:24.346Z,22.97
2018-09-19T00:30:55.939Z,22.96
2018-09-19T00:31:27.534Z,22.96
2018-09-19T00:31:59.115Z,22.98
2018-09-19T00:32:30.734Z,23.00
2018-09-19T00:33:02.338Z,23.01
2018-09-19T00:33:33.946Z,23.01
2018-09-19T00:34:05.539Z,23.01
2018-09-19T00:34:37.143Z,23.02
2018-09-19T00:35:08.750Z,23.02
2018-09-19T03:35:38.628Z,22.20
2018-09-19T03:36:10.215Z,22.19
2018-09-19T03:36:41.814Z,22.17
2018-09-19T03:37:13.449Z,22.17
2018-09-19T03:37:45.045Z,22.19
2018-09-19T03:38:16.638Z,22.20
2018-09-19T03:38:48.239Z,22.18
2018-09-19T03:39:19.842Z,21.99
2018-09-19T03:39:51.445Z,22.17
2018-09-19T03:40:23.051Z,22.14
2018-09-19T03:40:54.690Z,22.13
2018-09-19T03:41:26.293Z,22.13
2018-09-19T03:41:57.904Z,22.13
2018-09-19T03:42:29.500Z,22.13
2018-09-19T03:43:01.102Z,22.15
2018-09-19T03:43:32.705Z,22.17
2018-09-19T03:44:04.310Z,22.17
2018-09-19T03:44:35.905Z,22.17
2018-09-19T03:45:07.510Z,22.16
2018-09-19T03:45:39.104Z,22.14
2018-09-19T03:46:10.742Z,22.14
2018-09-19T03:46:42.331Z,22.14
2018-09-19T03:47:13.934Z,22.13
2018-09-19T03:47:45.537Z,22.14
2018-09-19T03:48:17.138Z,22.13
2018-09-19T03:48:48.731Z,22.11
2018-09-19T03:49:20.319Z,22.08
2018-09-19T03:49:51.919Z,22.07
2018-09-19T03:50:23.519Z,22.10
2018-09-19T03:50:55.136Z,22.07
2018-09-19T03:51:26.739Z,22.06
2018-09-19T03:51:58.353Z,22.04
2018-09-19T03:52:29.943Z,22.04
2018-09-19T03:53:01.550Z,22.06
2018-09-19T03:53:33.158Z,22.09
2018-09-19T03:54:04.766Z,22.12
2018-09-19T03:54:36.373Z,22.14
2018-09-19T03:55:07.964Z,22.15
2018-09-19T03:55:39.606Z,22.13
2018-09-19T03:56:11.230Z,22.14
2018-09-19T03:56:42.833Z,22.12
2018-09-19T03:57:14.420Z,22.11
2018-09-19T03:57:45.994Z,22.11
2018-09-19T03:58:17.624Z,22.10
2018-09-19T03:58:49.220Z,22.09
2018-09-19T03:59:20.822Z,22.06
2018-09-19T03:59:52.432Z,22.04
2018-09-19T04:00:24.038Z,22.02
2018-09-19T04:00:55.646Z,22.01
2018-09-19T04:01:27.267Z,22.02
2018-09-19T04:01:58.878Z,22.04
2018-09-19T04:02:30.473Z,22.04
2018-09-19T04:03:02.054Z,22.06
2018-09-19T04:03:33.635Z,22.06
2018-09-19T04:04:05.236Z,22.08
2018-09-19T04:04:36.814Z,22.09
2018-09-19T04:05:08.418Z,22.10
2018-09-19T04:05:40.004Z,22.07
2018-09-19T04:06:11.637Z,22.09
2018-09-19T04:06:43.241Z,22.09
2018-09-19T04:07:14.847Z,22.10
2018-09-19T04:07:46.431Z,22.09
2018-09-19T04:08:18.032Z,22.10
2018-09-19T04:08:49.633Z,22.10
2018-09-19T04:09:21.225Z,22.15
2018-09-19T04:09:52.812Z,22.17
2018-09-19T04:10:24.414Z,22.18
2018-09-19T04:10:56.022Z,22.16
2018-09-19T04:11:27.643Z,22.16
2018-09-19T04:11:59.232Z,22.14
2018-09-19T04:12:30.814Z,22.11
2018-09-19T04:13:02.409Z,22.12
2018-09-19T04:13:34.012Z,22.12
2018-09-19T04:14:05.614Z,22.13
2018-09-19T04:14:37.215Z,22.11
2018-09-19T04:15:08.808Z,22.09
2018-09-19T04:15:40.397Z,22.09
2018-09-19T04:16:11.995Z,22.05
2018-09-19T04:16:43.613Z,22.05
2018-09-19T04:17:15.244Z,22.01
2018-09-19T04:17:46.877Z,21.99
2018-09-19T04:18:18.429Z,21.97
2018-09-19T04:18:50.033Z,21.95
2018-09-19T04:19:21.624Z,21.96
2018-09-19T04:19:53.220Z,21.96
2018-09-19T04:20:24.840Z,21.95
2018-09-19T04:20:56.419Z,21.93
2018-09-19T04:21:28.022Z,21.90
2018-09-19T04:21:59.669Z,21.89
2018-09-19T04:22:31.288Z,21.90
2018-09-19T04:23:02.878Z,21.90
2018-09-19T04:23:34.472Z,21.89
2018-09-19T04:24:06.069Z,21.87
2018-09-19T04:24:37.660Z,21.85
2018-09-19T04:25:09.270Z,21.86
2018-09-19T04:25:40.881Z,21.84
2018-09-19T04:26:12.475Z,21.82
2018-09-19T04:26:44.064Z,21.83
2018-09-19T04:27:15.685Z,21.86
2018-09-19T04:27:47.294Z,21.88
2018-09-19T04:28:18.893Z,21.90
2018-09-19T04:28:50.469Z,21.92
2018-09-19T04:29:22.074Z,21.94
2018-09-19T04:29:53.665Z,21.92
2018-09-19T04:30:25.261Z,21.90
2018-09-19T04:30:56.878Z,21.87
2018-09-19T04:31:28.474Z,21.85
2018-09-19T04:32:00.113Z,21.86
2018-09-19T04:32:31.719Z,21.85
2018-09-19T04:33:03.330Z,21.86
2018-09-19T04:33:34.933Z,21.88
2018-09-19T04:34:06.532Z,21.91
2018-09-19T04:34:38.139Z,21.91
2018-09-19T04:35:09.728Z,21.93
2018-09-19T04:35:41.361Z,21.90
2018-09-19T04:36:12.965Z,21.87
2018-09-19T04:36:44.577Z,21.91
2018-09-19T04:37:16.210Z,21.87
2018-09-19T04:37:47.806Z,21.86
2018-09-19T04:38:19.403Z,21.84
2018-09-19T04:38:51.004Z,21.81
2018-09-19T04:39:22.617Z,21.79
2018-09-19T04:39:54.223Z,21.79
2018-09-19T04:40:25.815Z,21.80
2018-09-19T04:40:57.418Z,21.85
2018-09-19T04:41:28.991Z,21.84
2018-09-19T04:42:00.598Z,21.86
2018-09-19T04:42:32.237Z,21.89
2018-09-19T04:43:03.828Z,21.92
2018-09-19T04:43:35.423Z,21.93
2018-09-19T04:44:07.017Z,21.97
2018-09-19T04:44:38.623Z,22.00
2018-09-19T04:45:10.235Z,21.95
2018-09-19T04:45:41.812Z,21.96
2018-09-19T04:46:13.408Z,21.95
2018-09-19T04:46:45.014Z,21.93
2018-09-19T04:47:16.612Z,21.93
2018-09-19T04:47:48.224Z,21.87
2018-09-19T04:48:19.820Z,21.92
2018-09-19T04:48:51.416Z,21.92
2018-09-19T04:49:22.997Z,21.92
2018-09-19T04:49:54.603Z,21.93
2018-09-19T04:50:26.197Z,21.91
2018-09-19T04:50:57.783Z,21.90
2018-09-19T04:51:29.438Z,21.89
2018-09-19T04:52:00.997Z,21.88
2018-09-19T04:52:32.717Z,21.89
2018-09-19T04:53:04.310Z,21.92
2018-09-19T04:53:35.913Z,21.95
2018-09-19T04:54:07.516Z,21.96
2018-09-19T04:54:39.108Z,21.94
2018-09-19T04:55:10.727Z,21.96
2018-09-19T04:55:42.323Z,21.94
2018-09-19T04:56:13.926Z,21.93
2018-09-19T04:56:45.534Z,21.92
2018-09-19T04:57:17.117Z,21.90
2018-09-19T04:57:48.747Z,21.92
2018-09-19T04:58:20.336Z,21.94
2018-09-19T04:58:51.949Z,21.92
2018-09-19T04:59:23.544Z,21.93
2018-09-19T04:59:55.150Z,21.92
2018-09-19T05:00:26.758Z,21.90
2018-09-19T05:00:58.338Z,21.89
2018-09-19T05:01:29.922Z,21.88
2018-09-19T05:02:01.512Z,21.93
2018-09-19T05:02:33.122Z,21.95
2018-09-19T05:03:04.749Z,21.96
2018-09-19T05:03:36.361Z,21.94
2018-09-19T05:04:07.959Z,21.94
2018-09-19T05:04:39.559Z,21.94
2018-09-19T05:05:11.151Z,21.92
2018-09-19T05:05:42.776Z,21.87
2018-09-19T05:06:14.380Z,21.86
2018-09-19T05:06:45.962Z,21.85
2018-09-19T05:07:17.634Z,21.80
2018-09-19T05:07:49.228Z,21.82
2018-09-19T05:08:20.834Z,21.85
2018-09-19T05:08:52.423Z,21.88
2018-09-19T05:09:24.034Z,21.91
2018-09-19T05:09:55.623Z,21.92
2018-09-19T05:10:27.217Z,21.98
2018-09-19T05:10:58.808Z,22.03
2018-09-19T05:11:30.486Z,22.05
2018-09-19T05:12:02.068Z,22.07
2018-09-19T05:12:33.665Z,22.06
2018-09-19T05:13:05.279Z,22.07
2018-09-19T05:13:36.883Z,22.07
2018-09-19T05:14:08.486Z,22.05
2018-09-19T05:14:40.094Z,21.87
2018-09-19T05:15:11.698Z,22.09
2018-09-19T05:15:43.303Z,22.09
2018-09-19T05:16:14.906Z,22.07
2018-09-19T05:16:46.490Z,22.03
2018-09-19T05:17:18.092Z,21.99
2018-09-19T05:17:49.700Z,21.98
2018-09-19T05:18:21.315Z,21.96
2018-09-19T05:18:52.913Z,21.95
2018-09-19T05:19:24.513Z,21.91
2018-09-19T05:19:56.125Z,21.92
2018-09-19T05:20:27.731Z,21.92
2018-09-19T05:20:59.328Z,21.93
2018-09-19T05:21:30.908Z,21.98
2018-09-19T05:22:02.514Z,21.98
2018-09-19T05:22:34.104Z,22.01
2018-09-19T05:23:05.729Z,22.00
2018-09-19T05:23:37.337Z,22.03
2018-09-19T05:24:08.946Z,22.06
2018-09-19T05:24:40.550Z,22.05
2018-09-19T05:25:12.155Z,22.02
2018-09-19T05:25:43.749Z,22.05
2018-09-19T05:26:15.336Z,22.06
2018-09-19T05:26:46.931Z,22.04
2018-09-19T05:27:18.538Z,22.05
2018-09-19T05:27:50.142Z,22.03
2018-09-19T05:28:21.819Z,22.00
2018-09-19T05:28:53.413Z,22.00
2018-09-19T05:29:24.994Z,22.01
2018-09-19T05:29:56.595Z,22.02
2018-09-19T05:30:28.201Z,22.04
2018-09-19T05:30:59.779Z,22.03
2018-09-19T05:31:31.419Z,22.02
2018-09-19T05:32:02.980Z,22.03
2018-09-19T05:32:34.567Z,22.06
2018-09-19T05:33:06.197Z,22.07
2018-09-19T05:33:37.794Z,22.07
2018-09-19T05:34:09.387Z,22.08
2018-09-19T05:34:41.011Z,22.09
2018-09-19T05:35:12.612Z,22.09
2018-09-19T05:35:44.216Z,22.06
2018-09-19T05:36:15.823Z,22.03
2018-09-19T05:36:47.442Z,22.02
2018-09-19T05:37:19.024Z,22.02
2018-09-19T05:37:50.612Z,22.03
2018-09-19T05:38:22.189Z,22.06
2018-09-19T05:38:53.781Z,22.03
2018-09-19T05:39:25.382Z,22.04
2018-09-19T05:39:56.966Z,22.03
2018-09-19T05:40:28.553Z,22.01
2018-09-19T05:41:00.144Z,22.02
2018-09-19T05:41:31.731Z,22.02
2018-09-19T05:42:03.338Z,22.02
2018-09-19T05:42:34.922Z,22.02
2018-09-19T05:43:06.508Z,22.02
2018-09-19T05:43:38.101Z,22.01
2018-09-19T05:44:09.696Z,22.01
2018-09-19T05:44:41.320Z,22.02
2018-09-19T05:45:12.924Z,22.00
2018-09-19T05:45:44.512Z,21.99
2018-09-19T05:46:16.147Z,21.96
2018-09-19T05:46:47.732Z,21.97
2018-09-19T05:47:19.323Z,21.92
2018-09-19T05:47:50.926Z,21.92
2018-09-19T05:48:22.558Z,21.89
2018-09-19T05:48:54.161Z,21.91
2018-09-19T05:49:25.765Z,21.91
2018-09-19T05:49:57.354Z,21.92
2018-09-19T05:50:28.957Z,21.92
2018-09-19T05:51:00.563Z,21.94
2018-09-19T05:51:32.179Z,21.92
2018-09-19T05:52:03.790Z,21.94
2018-09-19T05:52:35.370Z,21.95
2018-09-19T05:53:06.961Z,21.93
2018-09-19T05:53:38.589Z,21.93
2018-09-19T05:54:10.193Z,21.94
2018-09-19T05:54:41.871Z,21.94
2018-09-19T05:55:13.394Z,21.95
2018-09-19T05:55:44.984Z,22.01
2018-09-19T05:56:16.591Z,22.04
2018-09-19T05:56:48.174Z,22.08
2018-09-19T05:57:19.763Z,22.09
2018-09-19T05:57:51.366Z,22.13
2018-09-19T05:58:22.997Z,22.03
2018-09-19T05:58:54.598Z,22.14
2018-09-19T05:59:26.188Z,22.15
2018-09-19T05:59:57.781Z,22.15
2018-09-19T06:00:29.362Z,22.15
2018-09-19T06:01:00.976Z,22.15
2018-09-19T06:01:32.576Z,22.17
2018-09-19T06:02:04.182Z,22.19
2018-09-19T06:02:35.810Z,22.20
2018-09-19T06:03:07.407Z,22.22
2018-09-19T06:03:39.034Z,22.21
2018-09-19T06:04:10.619Z,22.21
2018-09-19T06:04:42.224Z,22.28
2018-09-19T06:05:13.883Z,22.30
2018-09-19T06:05:45.476Z,22.29
2018-09-19T06:06:17.064Z,22.29
2018-09-19T06:06:48.656Z,22.25
2018-09-19T06:07:20.244Z,22.21
2018-09-19T06:07:51.833Z,22.18
2018-09-19T06:08:23.453Z,22.16
2018-09-19T06:08:55.058Z,22.14
2018-09-19T06:09:26.653Z,22.18
2018-09-19T06:09:58.230Z,22.19
2018-09-19T06:10:29.839Z,22.18
2018-09-19T06:11:01.436Z,22.14
2018-09-19T06:11:33.010Z,22.10
2018-09-19T06:12:04.617Z,22.05
2018-09-19T06:12:36.221Z,22.03
2018-09-19T06:13:07.822Z,22.02
2018-09-19T06:13:39.446Z,22.01
2018-09-19T06:14:11.045Z,22.01
2018-09-19T06:14:42.652Z,22.01
2018-09-19T06:15:14.258Z,22.00
2018-09-19T06:15:45.866Z,21.96
2018-09-19T06:16:17.463Z,21.95
2018-09-19T06:16:49.044Z,21.84
2018-09-19T06:17:20.632Z,21.92
2018-09-19T06:17:52.247Z,21.93
2018-09-19T06:18:23.970Z,21.93
2018-09-19T06:18:55.596Z,21.96
2018-09-19T06:19:27.190Z,21.98
2018-09-19T06:19:58.781Z,21.98
2018-09-19T06:20:30.368Z,21.99
2018-09-19T06:21:01.950Z,22.04
2018-09-19T06:21:33.557Z,22.06
2018-09-19T06:22:05.168Z,22.10
2018-09-19T06:22:36.769Z,22.15
2018-09-19T06:23:08.356Z,22.14
2018-09-19T06:23:39.943Z,22.16
2018-09-19T06:24:11.565Z,22.19
2018-09-19T06:24:43.169Z,22.22
2018-09-19T06:25:14.830Z,22.20
2018-09-19T06:25:46.424Z,22.19
2018-09-19T06:26:18.030Z,22.18
2018-09-19T06:26:49.658Z,22.19
2018-09-19T06:27:21.247Z,22.22
2018-09-19T06:27:52.854Z,22.22
2018-09-19T06:28:24.448Z,22.20
2018-09-19T06:28:56.079Z,22.18
2018-09-19T06:29:27.690Z,22.16
2018-09-19T06:29:59.285Z,22.18
2018-09-19T06:30:30.876Z,22.18
2018-09-19T06:31:02.468Z,22.14
2018-09-19T06:31:34.063Z,22.15
2018-09-19T06:32:05.654Z,22.19
2018-09-19T06:32:37.244Z,22.23
2018-09-19T06:33:08.896Z,22.23
2018-09-19T06:33:40.455Z,22.23
2018-09-19T06:34:12.068Z,22.24
2018-09-19T06:34:43.655Z,22.26
2018-09-19T06:35:15.245Z,22.27
2018-09-19T06:35:46.833Z,22.27
2018-09-19T06:36:18.419Z,22.26
2018-09-19T06:36:50.053Z,22.25
2018-09-19T06:37:21.651Z,22.20
2018-09-19T06:37:53.235Z,22.21
2018-09-19T06:38:24.826Z,22.17
2018-09-19T06:38:56.445Z,22.15
2018-09-19T06:39:28.079Z,22.13
2018-09-19T06:39:59.730Z,22.13
2018-09-19T06:40:31.374Z,22.13
2018-09-19T06:41:03.008Z,22.18
2018-09-19T06:41:34.534Z,22.16
2018-09-19T06:42:06.115Z,22.14
2018-09-19T06:42:37.827Z,22.12
2018-09-19T06:43:09.421Z,22.09
2018-09-19T06:43:41.043Z,22.06
2018-09-19T06:44:12.670Z,22.00
2018-09-19T06:44:44.250Z,21.97
2018-09-19T06:45:15.834Z,21.94
2018-09-19T06:45:47.453Z,21.89
2018-09-19T06:46:19.041Z,21.84
2018-09-19T06:46:50.678Z,21.96
2018-09-19T06:47:22.274Z,22.01
2018-09-19T06:47:53.868Z,22.02
2018-09-19T06:48:25.461Z,22.06
2018-09-19T06:48:57.067Z,22.08
2018-09-19T06:49:28.688Z,22.11
2018-09-19T06:50:00.290Z,22.15
2018-09-19T06:50:31.887Z,22.19
2018-09-19T06:51:03.488Z,22.22
2018-09-19T06:51:35.123Z,22.24
2018-09-19T06:52:06.793Z,22.26
2018-09-19T06:52:38.331Z,22.27
2018-09-19T06:53:09.923Z,22.26
2018-09-19T06:53:41.512Z,22.21
2018-09-19T06:54:13.161Z,22.22
2018-09-19T06:54:44.791Z,22.24
2018-09-19T06:55:16.399Z,22.25
2018-09-19T06:55:47.994Z,22.26
2018-09-19T06:56:19.605Z,22.26
2018-09-19T06:56:51.201Z,22.23
2018-09-19T06:57:22.884Z,22.26
2018-09-19T06:57:54.466Z,22.26
2018-09-19T06:58:26.050Z,22.26
2018-09-19T06:58:57.643Z,22.27
2018-09-19T06:59:29.249Z,22.25
2018-09-19T07:00:00.854Z,22.25
2018-09-19T07:00:32.448Z,22.26
2018-09-19T07:01:04.052Z,22.25
2018-09-19T07:01:35.645Z,22.23
2018-09-19T07:02:07.252Z,22.23
2018-09-19T07:02:38.834Z,22.24
2018-09-19T07:03:10.438Z,22.18
2018-09-19T07:03:42.045Z,22.16
2018-09-19T07:04:13.654Z,22.16
2018-09-19T07:04:45.283Z,22.19
2018-09-19T07:05:16.883Z,22.17
2018-09-19T07:05:48.551Z,22.19
2018-09-19T07:06:20.110Z,22.21
2018-09-19T07:06:51.715Z,22.23
2018-09-19T07:07:23.329Z,22.26
2018-09-19T07:07:54.921Z,22.28
2018-09-19T07:08:26.524Z,22.27
2018-09-19T07:08:58.133Z,22.27
2018-09-19T07:09:29.750Z,22.09
2018-09-19T07:10:01.345Z,22.31
2018-09-19T07:10:32.972Z,22.32
2018-09-19T07:11:04.555Z,22.32
2018-09-19T07:11:36.165Z,22.31
2018-09-19T07:12:07.748Z,22.29
2018-09-19T07:12:39.344Z,22.28
2018-09-19T07:13:10.946Z,22.30
2018-09-19T07:13:42.550Z,22.25
2018-09-19T07:14:14.126Z,22.25
2018-09-19T07:14:45.726Z,22.23
2018-09-19T07:15:17.387Z,22.21
2018-09-19T07:15:48.982Z,22.25
2018-09-19T07:16:20.588Z,22.26
2018-09-19T07:16:52.184Z,22.28
2018-09-19T07:17:23.765Z,22.27
2018-09-19T07:17:55.346Z,22.29
2018-09-19T07:18:26.950Z,22.29
2018-09-19T07:18:58.624Z,22.26
2018-09-19T07:19:30.214Z,22.23
2018-09-19T07:20:01.825Z,22.19
2018-09-19T07:20:33.434Z,22.21
2018-09-19T07:21:05.037Z,22.19
2018-09-19T07:21:36.644Z,22.18
2018-09-19T07:22:08.236Z,22.18
2018-09-19T07:22:39.816Z,22.21
2018-09-19T07:23:11.418Z,22.22
2018-09-19T07:23:43.063Z,22.25
2018-09-19T07:24:14.641Z,22.26
2018-09-19T07:24:46.223Z,22.27
2018-09-19T07:25:17.886Z,22.32
2018-09-19T07:25:49.467Z,22.37
2018-09-19T07:26:21.078Z,22.38
2018-09-19T07:26:52.676Z,22.31
2018-09-19T07:27:24.284Z,22.26
2018-09-19T07:27:55.887Z,22.20
2018-09-19T07:28:27.476Z,22.11
2018-09-19T07:28:59.117Z,22.11
2018-09-19T07:29:30.708Z,22.07
2018-09-19T07:30:02.324Z,22.05
2018-09-19T07:30:33.933Z,22.02
2018-09-19T07:31:05.588Z,22.02
2018-09-19T07:31:37.140Z,22.00
2018-09-19T07:32:08.745Z,22.00
2018-09-19T07:32:40.338Z,21.98
2018-09-19T07:33:11.933Z,21.97
2018-09-19T07:33:43.548Z,21.97
2018-09-19T07:34:15.140Z,21.94
2018-09-19T07:34:46.744Z,21.93
2018-09-19T07:35:18.336Z,21.92
2018-09-19T07:35:49.945Z,21.91
2018-09-19T07:36:21.548Z,21.92
2018-09-19T07:36:53.136Z,21.90
2018-09-19T07:37:24.716Z,21.90
2018-09-19T07:37:56.322Z,21.90
2018-09-19T07:38:27.916Z,21.92
2018-09-19T07:38:59.514Z,21.92
2018-09-19T07:39:31.122Z,21.93
2018-09-19T07:40:02.808Z,21.94
2018-09-19T07:40:34.371Z,21.95
2018-09-19T07:41:05.970Z,21.74
2018-09-19T07:41:37.578Z,21.94
2018-09-19T07:42:09.193Z,21.95
2018-09-19T07:42:40.788Z,21.96
2018-09-19T07:43:12.385Z,21.99
2018-09-19T07:43:43.972Z,22.00
2018-09-19T07:44:15.568Z,22.04
2018-09-19T07:44:47.155Z,22.07
2018-09-19T07:45:18.773Z,22.11
2018-09-19T07:45:50.397Z,22.14
2018-09-19T07:46:22.021Z,22.18
2018-09-19T07:46:53.623Z,22.22
2018-09-19T07:47:25.205Z,22.28
2018-09-19T07:47:56.808Z,22.33
2018-09-19T07:48:28.400Z,22.36
2018-09-19T07:48:59.988Z,22.44
2018-09-19T07:49:31.570Z,22.48
2018-09-19T07:50:03.189Z,22.52
2018-09-19T07:50:34.784Z,22.51
2018-09-19T07:51:06.372Z,22.50
2018-09-19T07:51:37.960Z,22.50
2018-09-19T07:52:09.548Z,22.51
2018-09-19T07:52:41.139Z,22.49
2018-09-19T07:53:12.728Z,22.51
2018-09-19T07:53:44.323Z,22.52
2018-09-19T07:54:15.907Z,22.54
2018-09-19T07:54:47.593Z,22.51
2018-09-19T07:55:19.183Z,22.46
2018-09-19T07:55:50.785Z,22.43
2018-09-19T07:56:22.363Z,22.36
2018-09-19T07:56:53.966Z,22.34
2018-09-19T07:57:25.575Z,22.34
2018-09-19T07:57:57.164Z,22.34
2018-09-19T07:58:28.753Z,22.32
2018-09-19T07:59:00.371Z,22.29
2018-09-19T07:59:31.981Z,22.28
2018-09-19T08:00:03.614Z,22.28
2018-09-19T08:00:35.210Z,22.28
2018-09-19T08:01:06.920Z,22.26
2018-09-19T08:01:38.474Z,22.24
2018-09-19T08:02:10.078Z,22.24
2018-09-19T08:02:41.669Z,22.22
2018-09-19T08:03:13.276Z,22.24
2018-09-19T08:03:44.891Z,22.24
2018-09-19T08:04:16.502Z,22.24
2018-09-19T08:04:48.097Z,22.22
2018-09-19T08:05:19.736Z,22.22
2018-09-19T08:05:51.335Z,22.21
2018-09-19T08:06:22.928Z,22.23
2018-09-19T08:06:54.530Z,22.23
2018-09-19T08:07:26.133Z,22.22
2018-09-19T08:07:57.739Z,22.22
2018-09-19T08:08:29.336Z,22.23
2018-09-19T08:09:00.950Z,22.22
2018-09-19T08:09:32.556Z,22.20
2018-09-19T08:10:04.166Z,22.19
2018-09-19T08:10:35.780Z,22.19
2018-09-19T08:11:07.371Z,22.20
2018-09-19T08:11:38.954Z,22.21
2018-09-19T08:12:10.554Z,22.22
2018-09-19T08:12:42.162Z,22.23
2018-09-19T08:13:13.798Z,22.24
2018-09-19T08:13:45.402Z,22.23
2018-09-19T08:14:17.008Z,22.23
2018-09-19T08:14:48.616Z,22.24
2018-09-19T08:15:20.234Z,22.25
2018-09-19T08:15:51.855Z,22.22
2018-09-19T08:16:23.463Z,22.24
2018-09-19T08:16:55.119Z,22.22
2018-09-19T08:17:26.676Z,22.24
2018-09-19T08:17:58.267Z,22.24
2018-09-19T08:18:29.860Z,22.23
2018-09-19T08:19:01.463Z,22.23
2018-09-19T08:19:33.069Z,22.23
2018-09-19T08:20:04.671Z,22.23
2018-09-19T08:20:36.302Z,22.24
2018-09-19T08:21:07.914Z,22.25
2018-09-19T08:21:39.504Z,22.24
2018-09-19T08:22:11.096Z,22.24
2018-09-19T08:22:42.727Z,22.25
2018-09-19T08:23:14.304Z,22.24
2018-09-19T08:23:45.897Z,22.26
2018-09-19T08:24:17.491Z,22.26
2018-09-19T08:24:49.080Z,22.28
2018-09-19T08:25:20.701Z,22.29
2018-09-19T08:25:52.306Z,22.29
2018-09-19T08:26:23.910Z,22.28
2018-09-19T08:26:55.515Z,22.27
2018-09-19T08:27:27.115Z,22.29
2018-09-19T08:27:58.700Z,22.30
2018-09-19T08:28:30.279Z,22.33
2018-09-19T08:29:01.863Z,22.34
2018-09-19T08:29:33.438Z,22.36
2018-09-19T08:30:05.037Z,22.39
2018-09-19T08:30:36.657Z,22.33
2018-09-19T08:31:08.258Z,22.42
2018-09-19T08:31:39.874Z,22.44
2018-09-19T08:32:11.479Z,22.48
2018-09-19T08:32:43.080Z,22.52
2018-09-19T08:33:14.669Z,22.53
2018-09-19T08:33:46.255Z,22.55
2018-09-19T08:34:17.854Z,22.56
2018-09-19T08:34:49.457Z,22.56
2018-09-19T08:35:21.085Z,22.57
2018-09-19T08:35:52.699Z,22.56
2018-09-19T08:36:24.298Z,22.57
2018-09-19T08:36:55.892Z,22.59
2018-09-19T08:37:27.483Z,22.60
2018-09-19T08:37:59.066Z,22.61
2018-09-19T08:38:30.665Z,22.61
2018-09-19T08:39:02.256Z,22.63
2018-09-19T08:39:33.843Z,22.64
2018-09-19T08:40:05.452Z,22.64
2018-09-19T08:40:37.093Z,22.66
2018-09-19T08:41:08.688Z,22.64
2018-09-19T08:41:40.273Z,22.66
2018-09-19T08:42:11.879Z,22.67
2018-09-19T08:42:43.489Z,22.68
2018-09-19T08:43:15.094Z,22.68
2018-09-19T08:43:46.684Z,22.68
2018-09-19T08:44:18.275Z,22.68
2018-09-19T08:44:49.860Z,22.70
2018-09-19T08:45:21.462Z,22.70
2018-09-19T08:45:53.079Z,22.71
2018-09-19T08:46:24.689Z,22.72
2018-09-19T08:46:56.294Z,22.72
2018-09-19T08:47:27.896Z,22.75
2018-09-19T08:47:59.504Z,22.75
2018-09-19T08:48:31.094Z,22.75
2018-09-19T08:49:02.689Z,22.74
2018-09-19T08:49:34.295Z,22.74
2018-09-19T08:50:05.903Z,22.73
2018-09-19T08:50:37.566Z,22.71
2018-09-19T08:51:09.119Z,22.69
2018-09-19T08:51:40.709Z,22.68
2018-09-19T08:52:12.302Z,22.68
2018-09-19T08:52:43.890Z,22.68
2018-09-19T08:53:15.502Z,22.66
2018-09-19T08:53:47.131Z,22.68
2018-09-19T08:54:18.740Z,22.66
2018-09-19T08:54:50.350Z,22.64
2018-09-19T08:55:21.954Z,22.62
2018-09-19T08:55:53.602Z,22.61
2018-09-19T08:56:25.202Z,22.59
2018-09-19T08:56:56.851Z,22.59
2018-09-19T08:57:28.432Z,22.57
2018-09-19T08:58:00.062Z,22.56
2018-09-19T08:58:31.669Z,22.56
2018-09-19T08:59:03.269Z,22.55
2018-09-19T08:59:34.850Z,22.55
2018-09-19T09:00:06.430Z,22.55
2018-09-19T09:00:38.044Z,22.56
2018-09-19T09:01:09.645Z,22.55
2018-09-19T09:01:41.232Z,22.55
2018-09-19T09:02:12.836Z,22.56
2018-09-19T09:02:44.429Z,22.56
2018-09-19T09:03:16.014Z,22.55
2018-09-19T09:03:47.590Z,22.55
2018-09-19T09:04:19.175Z,22.55
2018-09-19T09:04:50.782Z,22.56
2018-09-19T09:05:22.399Z,22.56
2018-09-19T09:05:54.011Z,22.57
2018-09-19T09:06:25.600Z,22.56
2018-09-19T09:06:57.188Z,22.58
2018-09-19T09:07:28.782Z,22.57
2018-09-19T09:08:00.369Z,22.57
2018-09-19T09:08:31.972Z,22.56
2018-09-19T09:09:03.580Z,22.53
2018-09-19T09:09:35.176Z,22.55
2018-09-19T09:10:06.760Z,22.55
2018-09-19T09:10:38.349Z,22.55
2018-09-19T09:11:09.940Z,22.53
2018-09-19T09:11:41.521Z,22.54
2018-09-19T09:12:13.185Z,22.53
2018-09-19T09:12:44.835Z,22.52
2018-09-19T09:13:16.376Z,22.52
2018-09-19T09:13:47.983Z,22.52
2018-09-19T09:14:19.562Z,22.52
2018-09-19T09:14:51.173Z,22.52
2018-09-19T09:15:22.783Z,22.53
2018-09-19T09:15:54.413Z,22.52
2018-09-19T09:16:26.000Z,22.52
2018-09-19T09:16:57.606Z,22.52
2018-09-19T09:17:29.214Z,22.51
2018-09-19T09:18:00.818Z,22.50
2018-09-19T09:18:32.425Z,22.50
2018-09-19T09:19:04.002Z,22.50
2018-09-19T09:19:35.601Z,22.49
2018-09-19T09:20:07.206Z,22.49
2018-09-19T09:20:38.810Z,22.49
2018-09-19T09:21:10.403Z,22.48
2018-09-19T09:21:42.016Z,22.46
2018-09-19T09:22:13.599Z,22.47
2018-09-19T09:22:45.209Z,22.47
2018-09-19T09:23:16.816Z,22.46
2018-09-19T09:23:48.422Z,22.45
2018-09-19T09:24:20.012Z,22.45
2018-09-19T09:24:51.604Z,22.45
2018-09-19T09:25:23.217Z,22.42
2018-09-19T09:25:54.857Z,22.45
2018-09-19T09:26:26.453Z,22.45
2018-09-19T09:26:58.068Z,22.44
2018-09-19T09:27:29.655Z,22.44
2018-09-19T09:28:01.262Z,22.44
2018-09-19T09:28:32.865Z,22.43
2018-09-19T09:29:04.473Z,22.42
2018-09-19T09:29:36.082Z,22.44
2018-09-19T09:30:07.690Z,22.44
2018-09-19T09:30:39.271Z,22.42
2018-09-19T09:31:10.955Z,22.42
2018-09-19T09:31:42.529Z,22.43
2018-09-19T09:32:45.697Z,22.44
2018-09-19T09:33:17.294Z,22.43
2018-09-19T09:33:48.903Z,22.44
2018-09-19T09:34:20.562Z,22.44
2018-09-19T09:34:52.132Z,22.44
2018-09-19T09:35:23.739Z,22.43
2018-09-19T09:35:55.352Z,22.44
2018-09-19T09:36:26.974Z,22.44
2018-09-19T09:36:58.578Z,22.45
2018-09-19T09:37:30.191Z,22.45
2018-09-19T09:38:01.789Z,22.45
2018-09-19T09:38:33.398Z,22.46
2018-09-19T09:39:04.992Z,22.46
2018-09-19T09:39:36.586Z,22.46
2018-09-19T09:40:08.186Z,22.46
2018-09-19T09:40:39.878Z,22.47
2018-09-19T09:41:11.434Z,22.47
2018-09-19T09:41:43.040Z,22.47
2018-09-19T09:42:14.628Z,22.47
2018-09-19T09:42:46.230Z,22.48
2018-09-19T09:43:17.843Z,22.51
2018-09-19T09:43:49.439Z,22.55
2018-09-19T09:44:21.018Z,22.59
2018-09-19T09:44:52.628Z,22.67
2018-09-19T09:45:24.238Z,22.73
2018-09-19T09:45:55.856Z,22.77
2018-09-19T09:46:27.480Z,22.79
2018-09-19T09:46:59.097Z,22.82
2018-09-19T09:47:30.698Z,22.87